sensor_id;sensor_type;location;lat;lon;timestamp;pressure;altitude;pressure_sealevel;temperature;humidity
14882;BME280;7533;51.278;12.588;2023-03-19T00:01:03;99851.50;;;22.74;59.16
14882;BME280;7533;51.278;12.588;2023-03-19T00:06:07;99852.22;;;22.76;58.95
14882;BME280;7533;51.278;12.588;2023-03-19T00:11:11;99851.59;;;22.72;59.11
14882;BME280;7533;51.278;12.588;2023-03-19T00:16:15;99843.63;;;22.70;58.97
14882;BME280;7533;51.278;12.588;2023-03-19T00:21:18;99849.28;;;22.79;59.08
14882;BME280;7533;51.278;12.588;2023-03-19T00:26:21;99840.94;;;22.70;59.25
14882;BME280;7533;51.278;12.588;2023-03-19T00:31:26;99849.53;;;22.76;59.09
14882;BME280;7533;51.278;12.588;2023-03-19T00:36:30;99853.19;;;22.75;59.15
14882;BME280;7533;51.278;12.588;2023-03-19T00:41:33;99853.06;;;22.76;59.08
14882;BME280;7533;51.278;12.588;2023-03-19T00:46:37;99854.53;;;22.80;58.74
14882;BME280;7533;51.278;12.588;2023-03-19T00:51:41;99850.25;;;22.78;58.81
14882;BME280;7533;51.278;12.588;2023-03-19T00:56:45;99856.13;;;22.83;58.80
14882;BME280;7533;51.278;12.588;2023-03-19T01:01:49;99864.97;;;22.85;58.78
14882;BME280;7533;51.278;12.588;2023-03-19T01:06:53;99856.03;;;22.84;58.77
14882;BME280;7533;51.278;12.588;2023-03-19T01:11:57;99849.16;;;22.80;58.80
14882;BME280;7533;51.278;12.588;2023-03-19T01:17:01;99848.78;;;22.74;58.93
14882;BME280;7533;51.278;12.588;2023-03-19T01:22:04;99849.53;;;22.76;59.18
14882;BME280;7533;51.278;12.588;2023-03-19T01:27:08;99843.41;;;22.74;58.92
14882;BME280;7533;51.278;12.588;2023-03-19T01:32:13;99846.97;;;22.63;59.19
14882;BME280;7533;51.278;12.588;2023-03-19T01:37:38;99852.00;;;22.67;59.03
14882;BME280;7533;51.278;12.588;2023-03-19T01:42:52;99851.13;;;22.67;59.13
14882;BME280;7533;51.278;12.588;2023-03-19T01:48:25;99846.13;;;22.62;59.21
14882;BME280;7533;51.278;12.588;2023-03-19T01:53:40;99849.31;;;22.67;59.18
14882;BME280;7533;51.278;12.588;2023-03-19T01:58:54;99840.09;;;22.70;59.19
14882;BME280;7533;51.278;12.588;2023-03-19T02:04:21;99836.78;;;22.66;59.06
14882;BME280;7533;51.278;12.588;2023-03-19T02:09:25;99835.91;;;22.66;59.17
14882;BME280;7533;51.278;12.588;2023-03-19T02:14:29;99835.91;;;22.66;59.23
14882;BME280;7533;51.278;12.588;2023-03-19T02:19:38;99833.84;;;22.69;59.22
14882;BME280;7533;51.278;12.588;2023-03-19T02:24:48;99824.88;;;22.69;59.24
14882;BME280;7533;51.278;12.588;2023-03-19T02:29:56;99831.13;;;22.69;59.26
14882;BME280;7533;51.278;12.588;2023-03-19T02:34:59;99831.38;;;22.66;59.11
14882;BME280;7533;51.278;12.588;2023-03-19T02:40:04;99837.03;;;22.63;59.23
14882;BME280;7533;51.278;12.588;2023-03-19T02:45:10;99845.13;;;22.63;59.23
14882;BME280;7533;51.278;12.588;2023-03-19T02:50:14;99842.66;;;22.60;59.28
14882;BME280;7533;51.278;12.588;2023-03-19T02:55:17;99851.03;;;22.57;59.32
14882;BME280;7533;51.278;12.588;2023-03-19T03:00:21;99844.88;;;22.55;59.57
14882;BME280;7533;51.278;12.588;2023-03-19T03:05:24;99853.22;;;22.52;59.63
14882;BME280;7533;51.278;12.588;2023-03-19T03:10:27;99851.63;;;22.50;59.62
14882;BME280;7533;51.278;12.588;2023-03-19T03:15:31;99858.13;;;22.47;59.65
14882;BME280;7533;51.278;12.588;2023-03-19T03:20:34;99852.00;;;22.45;59.83
14882;BME280;7533;51.278;12.588;2023-03-19T03:25:38;99854.94;;;22.42;59.78
14882;BME280;7533;51.278;12.588;2023-03-19T03:30:42;99861.47;;;22.39;59.80
14882;BME280;7533;51.278;12.588;2023-03-19T03:35:45;99850.91;;;22.36;60.03
14882;BME280;7533;51.278;12.588;2023-03-19T03:40:49;99869.91;;;22.35;60.04
14882;BME280;7533;51.278;12.588;2023-03-19T03:45:55;99866.44;;;22.33;60.25
14882;BME280;7533;51.278;12.588;2023-03-19T03:50:59;99868.41;;;22.31;60.12
14882;BME280;7533;51.278;12.588;2023-03-19T03:56:02;99866.94;;;22.27;60.29
14882;BME280;7533;51.278;12.588;2023-03-19T04:01:07;99876.16;;;22.24;60.40
14882;BME280;7533;51.278;12.588;2023-03-19T04:06:13;99870.88;;;22.23;60.55
14882;BME280;7533;51.278;12.588;2023-03-19T04:11:18;99868.41;;;22.20;60.58
14882;BME280;7533;51.278;12.588;2023-03-19T04:16:22;99872.22;;;22.17;60.63
14882;BME280;7533;51.278;12.588;2023-03-19T04:21:25;99863.50;;;22.13;60.72
14882;BME280;7533;51.278;12.588;2023-03-19T04:26:29;99859.97;;;22.13;60.74
14882;BME280;7533;51.278;12.588;2023-03-19T04:31:33;99865.47;;;22.11;60.70
14882;BME280;7533;51.278;12.588;2023-03-19T04:36:37;99864.81;;;22.08;60.85
14882;BME280;7533;51.278;12.588;2023-03-19T04:41:40;99863.97;;;22.07;60.98
14882;BME280;7533;51.278;12.588;2023-03-19T04:46:59;99853.41;;;22.04;60.82
14882;BME280;7533;51.278;12.588;2023-03-19T04:52:06;99858.06;;;22.02;61.03
14882;BME280;7533;51.278;12.588;2023-03-19T04:57:10;99853.75;;;22.00;61.01
14882;BME280;7533;51.278;12.588;2023-03-19T05:02:17;99852.19;;;21.97;61.31
14882;BME280;7533;51.278;12.588;2023-03-19T05:07:20;99873.88;;;21.96;61.15
14882;BME280;7533;51.278;12.588;2023-03-19T05:12:23;99881.19;;;21.93;61.44
14882;BME280;7533;51.278;12.588;2023-03-19T05:17:31;99883.16;;;21.91;61.49
14882;BME280;7533;51.278;12.588;2023-03-19T05:22:53;99876.19;;;21.89;61.38
14882;BME280;7533;51.278;12.588;2023-03-19T05:28:06;99873.59;;;21.87;61.47
14882;BME280;7533;51.278;12.588;2023-03-19T05:33:11;99874.69;;;21.85;61.53
14882;BME280;7533;51.278;12.588;2023-03-19T05:38:16;99882.91;;;21.83;61.62
14882;BME280;7533;51.278;12.588;2023-03-19T05:43:26;99894.63;;;21.82;61.74
14882;BME280;7533;51.278;12.588;2023-03-19T05:48:32;99898.31;;;21.81;61.88
14882;BME280;7533;51.278;12.588;2023-03-19T05:53:37;99902.13;;;21.79;61.79
14882;BME280;7533;51.278;12.588;2023-03-19T05:59:02;99892.31;;;21.78;61.85
14882;BME280;7533;51.278;12.588;2023-03-19T06:04:11;99910.28;;;21.77;62.08
14882;BME280;7533;51.278;12.588;2023-03-19T06:09:14;99913.97;;;21.76;61.96
14882;BME280;7533;51.278;12.588;2023-03-19T06:14:22;99921.06;;;21.77;62.13
14882;BME280;7533;51.278;12.588;2023-03-19T06:19:47;99928.28;;;21.77;62.27
14882;BME280;7533;51.278;12.588;2023-03-19T06:24:50;99923.88;;;21.76;62.30
14882;BME280;7533;51.278;12.588;2023-03-19T06:29:53;99931.97;;;21.76;62.15
14882;BME280;7533;51.278;12.588;2023-03-19T06:35:05;99928.41;;;21.75;62.25
14882;BME280;7533;51.278;12.588;2023-03-19T06:40:10;99941.03;;;21.75;62.31
14882;BME280;7533;51.278;12.588;2023-03-19T06:45:13;99940.91;;;21.76;62.17
14882;BME280;7533;51.278;12.588;2023-03-19T06:50:20;99932.81;;;21.76;62.35
14882;BME280;7533;51.278;12.588;2023-03-19T06:55:23;99934.53;;;21.77;62.39
14882;BME280;7533;51.278;12.588;2023-03-19T07:00:26;99942.53;;;21.79;62.36
14882;BME280;7533;51.278;12.588;2023-03-19T07:05:30;99938.97;;;21.78;62.35
14882;BME280;7533;51.278;12.588;2023-03-19T07:10:33;99937.13;;;21.79;62.14
14882;BME280;7533;51.278;12.588;2023-03-19T07:15:37;99939.69;;;21.80;62.19
14882;BME280;7533;51.278;12.588;2023-03-19T07:20:41;99945.09;;;21.80;62.51
14882;BME280;7533;51.278;12.588;2023-03-19T07:25:44;99956.72;;;21.81;62.01
14882;BME280;7533;51.278;12.588;2023-03-19T07:30:50;99954.03;;;21.81;62.08
14882;BME280;7533;51.278;12.588;2023-03-19T07:35:54;99946.81;;;21.81;62.31
14882;BME280;7533;51.278;12.588;2023-03-19T07:40:57;99956.59;;;21.82;62.08
14882;BME280;7533;51.278;12.588;2023-03-19T07:46:03;99956.50;;;21.84;62.22
14882;BME280;7533;51.278;12.588;2023-03-19T07:51:08;99951.13;;;21.84;62.22
14882;BME280;7533;51.278;12.588;2023-03-19T07:56:11;99952.81;;;21.85;62.38
14882;BME280;7533;51.278;12.588;2023-03-19T08:01:14;99956.25;;;21.87;62.29
14882;BME280;7533;51.278;12.588;2023-03-19T08:06:18;99969.28;;;20.06;51.52
14882;BME280;7533;51.278;12.588;2023-03-19T08:11:21;99957.72;;;19.79;49.94
14882;BME280;7533;51.278;12.588;2023-03-19T08:16:24;99961.56;;;20.15;50.14
14882;BME280;7533;51.278;12.588;2023-03-19T08:21:28;99947.25;;;20.91;50.78
14882;BME280;7533;51.278;12.588;2023-03-19T08:26:34;99959.47;;;21.07;51.31
14882;BME280;7533;51.278;12.588;2023-03-19T08:31:38;99950.59;;;21.31;52.16
14882;BME280;7533;51.278;12.588;2023-03-19T08:36:42;99952.91;;;21.48;53.04
14882;BME280;7533;51.278;12.588;2023-03-19T08:41:44;99944.66;;;21.62;53.69
14882;BME280;7533;51.278;12.588;2023-03-19T08:46:47;99949.69;;;21.67;54.13
14882;BME280;7533;51.278;12.588;2023-03-19T08:51:51;99956.22;;;21.76;54.62
14882;BME280;7533;51.278;12.588;2023-03-19T08:56:54;99954.75;;;21.83;54.97
14882;BME280;7533;51.278;12.588;2023-03-19T09:01:57;99963.47;;;21.86;55.15
14882;BME280;7533;51.278;12.588;2023-03-19T09:07:01;99973.78;;;21.92;55.61
14882;BME280;7533;51.278;12.588;2023-03-19T09:12:05;99977.84;;;21.98;55.52
14882;BME280;7533;51.278;12.588;2023-03-19T09:17:08;99974.06;;;22.01;55.40
14882;BME280;7533;51.278;12.588;2023-03-19T09:22:12;99973.81;;;22.04;55.23
14882;BME280;7533;51.278;12.588;2023-03-19T09:27:15;99989.78;;;22.07;55.08
14882;BME280;7533;51.278;12.588;2023-03-19T09:32:19;99987.72;;;22.10;55.20
14882;BME280;7533;51.278;12.588;2023-03-19T09:37:23;99991.91;;;22.14;55.39
14882;BME280;7533;51.278;12.588;2023-03-19T09:42:44;99997.94;;;22.18;55.34
14882;BME280;7533;51.278;12.588;2023-03-19T09:47:54;100002.22;;;22.21;55.27
14882;BME280;7533;51.278;12.588;2023-03-19T09:53:07;99997.69;;;22.21;55.04
14882;BME280;7533;51.278;12.588;2023-03-19T09:58:16;99994.97;;;22.21;54.81
14882;BME280;7533;51.278;12.588;2023-03-19T10:03:35;99989.50;;;22.23;54.47
14882;BME280;7533;51.278;12.588;2023-03-19T10:08:54;99999.16;;;22.25;54.53
14882;BME280;7533;51.278;12.588;2023-03-19T10:14:09;99999.91;;;22.27;54.13
14882;BME280;7533;51.278;12.588;2023-03-19T10:19:22;99996.59;;;22.24;53.33
14882;BME280;7533;51.278;12.588;2023-03-19T10:24:30;100004.22;;;22.30;53.41
14882;BME280;7533;51.278;12.588;2023-03-19T10:29:34;100008.28;;;22.35;53.65
14882;BME280;7533;51.278;12.588;2023-03-19T10:34:41;100003.59;;;22.37;53.71
14882;BME280;7533;51.278;12.588;2023-03-19T10:39:46;100006.81;;;22.42;53.85
14882;BME280;7533;51.278;12.588;2023-03-19T10:44:51;100009.28;;;22.46;54.11
14882;BME280;7533;51.278;12.588;2023-03-19T10:49:58;100007.31;;;22.48;54.04
14882;BME280;7533;51.278;12.588;2023-03-19T10:55:11;100003.28;;;22.53;54.39
14882;BME280;7533;51.278;12.588;2023-03-19T11:00:16;100014.91;;;22.54;54.45
14882;BME280;7533;51.278;12.588;2023-03-19T11:05:25;100004.00;;;22.55;54.60
14882;BME280;7533;51.278;12.588;2023-03-19T11:10:34;99997.41;;;22.59;54.87
14882;BME280;7533;51.278;12.588;2023-03-19T11:15:38;99996.91;;;22.65;54.92
14882;BME280;7533;51.278;12.588;2023-03-19T11:20:41;99995.81;;;22.68;54.82
14882;BME280;7533;51.278;12.588;2023-03-19T11:25:50;99999.25;;;22.70;54.78
14882;BME280;7533;51.278;12.588;2023-03-19T11:30:59;99995.44;;;22.73;54.71
14882;BME280;7533;51.278;12.588;2023-03-19T11:36:08;99988.84;;;22.77;54.86
14882;BME280;7533;51.278;12.588;2023-03-19T11:41:23;99987.75;;;22.79;55.02
14882;BME280;7533;51.278;12.588;2023-03-19T11:46:35;99980.38;;;22.81;54.96
14882;BME280;7533;51.278;12.588;2023-03-19T11:51:43;99984.81;;;22.13;52.13
14882;BME280;7533;51.278;12.588;2023-03-19T11:56:57;99978.66;;;22.58;52.47
14882;BME280;7533;51.278;12.588;2023-03-19T12:02:28;99977.19;;;22.76;53.01
14882;BME280;7533;51.278;12.588;2023-03-19T12:07:42;99983.44;;;22.77;53.81
14882;BME280;7533;51.278;12.588;2023-03-19T12:12:56;99986.78;;;22.91;54.64
14882;BME280;7533;51.278;12.588;2023-03-19T12:18:12;99978.81;;;22.90;54.90
14882;BME280;7533;51.278;12.588;2023-03-19T12:23:29;99984.31;;;22.88;54.86
14882;BME280;7533;51.278;12.588;2023-03-19T12:28:43;100009.47;;;22.89;50.43
14882;BME280;7533;51.278;12.588;2023-03-19T12:33:52;100008.94;;;22.84;49.65
14882;BME280;7533;51.278;12.588;2023-03-19T12:39:02;99988.78;;;22.08;51.00
14882;BME280;7533;51.278;12.588;2023-03-19T12:44:11;99995.88;;;22.33;52.12
14882;BME280;7533;51.278;12.588;2023-03-19T12:49:20;99992.25;;;22.56;52.24
14882;BME280;7533;51.278;12.588;2023-03-19T12:54:27;99994.00;;;22.68;52.54
14882;BME280;7533;51.278;12.588;2023-03-19T12:59:41;100004.16;;;22.76;52.72
14882;BME280;7533;51.278;12.588;2023-03-19T13:04:53;100009.44;;;22.78;53.18
14882;BME280;7533;51.278;12.588;2023-03-19T13:10:02;100019.84;;;22.82;53.26
14882;BME280;7533;51.278;12.588;2023-03-19T13:15:13;100020.72;;;22.83;53.57
14882;BME280;7533;51.278;12.588;2023-03-19T13:20:21;100030.66;;;22.82;53.81
14882;BME280;7533;51.278;12.588;2023-03-19T13:25:30;100029.66;;;22.83;53.74
14882;BME280;7533;51.278;12.588;2023-03-19T13:30:36;100036.31;;;22.79;53.99
14882;BME280;7533;51.278;12.588;2023-03-19T13:35:43;100036.31;;;22.79;54.03
14882;BME280;7533;51.278;12.588;2023-03-19T13:40:49;100030.66;;;22.82;54.04
14882;BME280;7533;51.278;12.588;2023-03-19T13:46:03;100032.63;;;22.80;53.98
14882;BME280;7533;51.278;12.588;2023-03-19T13:51:22;100030.53;;;22.84;53.97
14882;BME280;7533;51.278;12.588;2023-03-19T13:56:27;100030.53;;;22.84;53.99
14882;BME280;7533;51.278;12.588;2023-03-19T14:01:38;100032.38;;;22.83;53.99
14882;BME280;7533;51.278;12.588;2023-03-19T14:06:43;100036.91;;;22.83;54.50
14882;BME280;7533;51.278;12.588;2023-03-19T14:11:47;100030.06;;;22.79;55.06
14882;BME280;7533;51.278;12.588;2023-03-19T14:16:52;100037.72;;;22.96;54.91
14882;BME280;7533;51.278;12.588;2023-03-19T14:22:08;100034.88;;;22.98;55.10
14882;BME280;7533;51.278;12.588;2023-03-19T14:27:14;100030.47;;;22.96;55.08
14882;BME280;7533;51.278;12.588;2023-03-19T14:32:24;100019.53;;;22.98;55.07
14882;BME280;7533;51.278;12.588;2023-03-19T14:37:37;100021.13;;;23.01;54.94
14882;BME280;7533;51.278;12.588;2023-03-19T14:42:55;100017.47;;;23.02;54.88
14882;BME280;7533;51.278;12.588;2023-03-19T14:48:18;100029.84;;;23.04;54.88
14882;BME280;7533;51.278;12.588;2023-03-19T14:53:24;100027.41;;;23.01;54.87
14882;BME280;7533;51.278;12.588;2023-03-19T14:58:29;100027.28;;;23.03;54.79
14882;BME280;7533;51.278;12.588;2023-03-19T15:03:35;100020.88;;;23.04;54.77
14882;BME280;7533;51.278;12.588;2023-03-19T15:08:39;100024.22;;;23.07;54.84
14882;BME280;7533;51.278;12.588;2023-03-19T15:13:53;100018.81;;;23.07;54.80
14882;BME280;7533;51.278;12.588;2023-03-19T15:19:07;100016.13;;;23.07;54.69
14882;BME280;7533;51.278;12.588;2023-03-19T15:24:13;100015.13;;;23.08;54.73
14882;BME280;7533;51.278;12.588;2023-03-19T15:29:29;100013.16;;;23.10;54.86
14882;BME280;7533;51.278;12.588;2023-03-19T15:34:33;100016.59;;;23.12;55.17
14882;BME280;7533;51.278;12.588;2023-03-19T15:39:43;100013.16;;;23.10;55.44
14882;BME280;7533;51.278;12.588;2023-03-19T15:44:49;100019.28;;;21.73;54.56
14882;BME280;7533;51.278;12.588;2023-03-19T15:49:58;100025.75;;;21.95;56.10
14882;BME280;7533;51.278;12.588;2023-03-19T15:55:04;100016.63;;;22.55;55.40
14882;BME280;7533;51.278;12.588;2023-03-19T16:00:12;100018.28;;;22.80;55.13
14882;BME280;7533;51.278;12.588;2023-03-19T16:05:25;100016.34;;;22.93;54.86
14882;BME280;7533;51.278;12.588;2023-03-19T16:10:32;100017.56;;;23.00;54.94
14882;BME280;7533;51.278;12.588;2023-03-19T16:15:40;100028.34;;;23.11;54.71
14882;BME280;7533;51.278;12.588;2023-03-19T16:20:59;100024.31;;;23.17;54.58
14882;BME280;7533;51.278;12.588;2023-03-19T16:26:14;100032.91;;;23.22;54.64
14882;BME280;7533;51.278;12.588;2023-03-19T16:31:21;100040.63;;;23.27;54.71
14882;BME280;7533;51.278;12.588;2023-03-19T16:36:30;100047.66;;;23.29;54.71
14882;BME280;7533;51.278;12.588;2023-03-19T16:41:34;100045.53;;;23.33;54.54
14882;BME280;7533;51.278;12.588;2023-03-19T16:46:37;100049.72;;;23.37;54.78
14882;BME280;7533;51.278;12.588;2023-03-19T16:51:42;100055.75;;;23.40;54.48
14882;BME280;7533;51.278;12.588;2023-03-19T16:56:45;100049.72;;;23.37;54.63
14882;BME280;7533;51.278;12.588;2023-03-19T17:01:47;100043.56;;;23.46;54.60
14882;BME280;7533;51.278;12.588;2023-03-19T17:06:52;100048.22;;;23.44;54.52
14882;BME280;7533;51.278;12.588;2023-03-19T17:11:54;100041.25;;;23.30;54.31
14882;BME280;7533;51.278;12.588;2023-03-19T17:16:58;100053.41;;;23.25;54.99
14882;BME280;7533;51.278;12.588;2023-03-19T17:22:02;100055.59;;;23.42;54.50
14882;BME280;7533;51.278;12.588;2023-03-19T17:27:05;100054.97;;;23.38;54.75
14882;BME280;7533;51.278;12.588;2023-03-19T17:32:15;100064.06;;;23.37;54.62
14882;BME280;7533;51.278;12.588;2023-03-19T17:37:20;100057.09;;;23.23;55.09
14882;BME280;7533;51.278;12.588;2023-03-19T17:42:23;100067.13;;;23.10;55.64
14882;BME280;7533;51.278;12.588;2023-03-19T17:47:26;100063.72;;;22.97;55.99
14882;BME280;7533;51.278;12.588;2023-03-19T17:52:31;100069.34;;;23.28;54.99
14882;BME280;7533;51.278;12.588;2023-03-19T17:57:35;100062.72;;;23.20;55.19
14882;BME280;7533;51.278;12.588;2023-03-19T18:02:39;100058.69;;;23.15;55.64
14882;BME280;7533;51.278;12.588;2023-03-19T18:07:44;100067.00;;;23.23;55.54
14882;BME280;7533;51.278;12.588;2023-03-19T18:12:48;100071.31;;;23.14;55.71
14882;BME280;7533;51.278;12.588;2023-03-19T18:17:53;100071.69;;;23.10;55.94
14882;BME280;7533;51.278;12.588;2023-03-19T18:22:58;100078.69;;;23.12;55.87
14882;BME280;7533;51.278;12.588;2023-03-19T18:28:02;100081.63;;;23.09;56.11
14882;BME280;7533;51.278;12.588;2023-03-19T18:33:09;100087.75;;;23.11;56.02
14882;BME280;7533;51.278;12.588;2023-03-19T18:38:17;100095.38;;;23.17;56.00
14882;BME280;7533;51.278;12.588;2023-03-19T18:43:21;100090.34;;;23.13;56.11
14882;BME280;7533;51.278;12.588;2023-03-19T18:48:26;100094.63;;;23.15;55.96
14882;BME280;7533;51.278;12.588;2023-03-19T18:53:33;100096.13;;;23.19;56.11
14882;BME280;7533;51.278;12.588;2023-03-19T18:58:37;100095.38;;;23.17;56.03
14882;BME280;7533;51.278;12.588;2023-03-19T19:03:40;100105.06;;;23.20;56.11
14882;BME280;7533;51.278;12.588;2023-03-19T19:08:45;100116.00;;;23.41;55.66
14882;BME280;7533;51.278;12.588;2023-03-19T19:13:50;100116.50;;;23.46;55.58
14882;BME280;7533;51.278;12.588;2023-03-19T19:18:57;100111.69;;;23.49;55.29
14882;BME280;7533;51.278;12.588;2023-03-19T19:24:01;100117.59;;;23.43;55.62
14882;BME280;7533;51.278;12.588;2023-03-19T19:29:04;100107.66;;;23.44;55.60
14882;BME280;7533;51.278;12.588;2023-03-19T19:34:10;100115.25;;;23.16;56.27
14882;BME280;7533;51.278;12.588;2023-03-19T19:39:16;100114.09;;;22.85;57.46
14882;BME280;7533;51.278;12.588;2023-03-19T19:44:20;100114.88;;;23.21;56.32
14882;BME280;7533;51.278;12.588;2023-03-19T19:49:24;100119.28;;;23.11;56.73
14882;BME280;7533;51.278;12.588;2023-03-19T19:54:29;100113.03;;;23.10;56.75
14882;BME280;7533;51.278;12.588;2023-03-19T19:59:32;100122.13;;;23.32;56.62
14882;BME280;7533;51.278;12.588;2023-03-19T20:04:35;100117.72;;;23.19;57.10
14882;BME280;7533;51.278;12.588;2023-03-19T20:09:39;100117.94;;;23.16;57.21
14882;BME280;7533;51.278;12.588;2023-03-19T20:14:43;100116.50;;;23.23;57.38
14882;BME280;7533;51.278;12.588;2023-03-19T20:19:47;100129.47;;;22.96;57.91
14882;BME280;7533;51.278;12.588;2023-03-19T20:24:51;100130.38;;;23.30;57.63
14882;BME280;7533;51.278;12.588;2023-03-19T20:29:54;100138.34;;;23.32;57.47
14882;BME280;7533;51.278;12.588;2023-03-19T20:34:58;100138.13;;;23.35;57.43
14882;BME280;7533;51.278;12.588;2023-03-19T20:40:03;100140.31;;;23.41;57.35
14882;BME280;7533;51.278;12.588;2023-03-19T20:45:14;100136.75;;;23.29;57.78
14882;BME280;7533;51.278;12.588;2023-03-19T20:50:20;100133.44;;;23.26;57.75
14882;BME280;7533;51.278;12.588;2023-03-19T20:55:27;100145.31;;;23.12;58.06
14882;BME280;7533;51.278;12.588;2023-03-19T21:00:32;100150.09;;;23.08;58.12
14882;BME280;7533;51.278;12.588;2023-03-19T21:05:36;100146.41;;;23.09;58.13
14882;BME280;7533;51.278;12.588;2023-03-19T21:10:42;100141.72;;;23.00;58.19
14882;BME280;7533;51.278;12.588;2023-03-19T21:15:46;100149.34;;;23.06;58.05
14882;BME280;7533;51.278;12.588;2023-03-19T21:20:52;100147.25;;;22.99;58.17
14882;BME280;7533;51.278;12.588;2023-03-19T21:25:58;100148.25;;;22.98;57.86
14882;BME280;7533;51.278;12.588;2023-03-19T21:31:02;100152.41;;;22.90;58.60
14882;BME280;7533;51.278;12.588;2023-03-19T21:36:05;100155.00;;;23.03;58.43
14882;BME280;7533;51.278;12.588;2023-03-19T21:41:20;100145.47;;;23.33;57.90
14882;BME280;7533;51.278;12.588;2023-03-19T21:46:27;100148.03;;;23.34;57.82
14882;BME280;7533;51.278;12.588;2023-03-19T21:51:30;100149.28;;;23.41;57.76
14882;BME280;7533;51.278;12.588;2023-03-19T21:56:38;100150.50;;;23.37;57.80
14882;BME280;7533;51.278;12.588;2023-03-19T22:01:42;100149.88;;;23.45;57.67
14882;BME280;7533;51.278;12.588;2023-03-19T22:06:45;100155.06;;;23.48;57.75
14882;BME280;7533;51.278;12.588;2023-03-19T22:11:50;100159.72;;;23.35;57.94
14882;BME280;7533;51.278;12.588;2023-03-19T22:16:54;100157.13;;;23.33;58.13
14882;BME280;7533;51.278;12.588;2023-03-19T22:21:57;100160.94;;;23.31;58.21
14882;BME280;7533;51.278;12.588;2023-03-19T22:27:02;100165.00;;;23.36;58.31
14882;BME280;7533;51.278;12.588;2023-03-19T22:32:08;100167.47;;;22.93;59.26
14882;BME280;7533;51.278;12.588;2023-03-19T22:37:23;100161.19;;;23.39;58.67
14882;BME280;7533;51.278;12.588;2023-03-19T22:42:28;100166.22;;;23.43;58.34
14882;BME280;7533;51.278;12.588;2023-03-19T22:47:34;100167.56;;;23.38;58.33
14882;BME280;7533;51.278;12.588;2023-03-19T22:52:38;100164.38;;;23.33;58.67
14882;BME280;7533;51.278;12.588;2023-03-19T22:57:43;100156.41;;;23.42;58.39
14882;BME280;7533;51.278;12.588;2023-03-19T23:02:47;100157.75;;;23.37;58.42
14882;BME280;7533;51.278;12.588;2023-03-19T23:07:55;100161.94;;;23.41;58.60
14882;BME280;7533;51.278;12.588;2023-03-19T23:12:59;100161.66;;;23.55;58.28
14882;BME280;7533;51.278;12.588;2023-03-19T23:18:02;100154.69;;;23.41;58.62
14882;BME280;7533;51.278;12.588;2023-03-19T23:23:05;100153.81;;;23.41;58.86
14882;BME280;7533;51.278;12.588;2023-03-19T23:28:17;100159.22;;;23.41;58.91
14882;BME280;7533;51.278;12.588;2023-03-19T23:33:21;100158.59;;;23.48;58.62
14882;BME280;7533;51.278;12.588;2023-03-19T23:38:27;100157.97;;;23.45;58.77
14882;BME280;7533;51.278;12.588;2023-03-19T23:43:32;100163.38;;;23.45;58.69
14882;BME280;7533;51.278;12.588;2023-03-19T23:48:36;100158.75;;;23.47;58.75
14882;BME280;7533;51.278;12.588;2023-03-19T23:53:40;100151.63;;;23.46;58.67
14882;BME280;7533;51.278;12.588;2023-03-19T23:58:46;100149.16;;;23.43;58.90
